Аэропорт
У-Тапао (VTBU)

 VTBU / UTP

Thailand
TH-21
Районг
 12.67990, 101.00500  / 42 ft

 VTBU 201600Z 33004KT 4000 BR NSC 24/20 Q1015 NOSIG
 TAF VTBU 201100Z 2012/2112 35004KT 4000 BR FEW020 BECMG 2104/2106 18010KT 7000 NSW

2020 © VATRUS division (Privacy Policy)